Main page
METAR-TAF:

METAR-TAF

Airports :

Auckland Airport

Auckland, New Zealand

latitude: 37-01S, longitude: 174-48E, elevation: 7 m

Current weather observation

The report was made 36 minutes ago, at 15:00 UTC
Wind 6 kt from the East
Temperature 12°C
Humidity 94%
Pressure 1019 hPa
Visibility 10 km or more

METAR: NZAA 281500Z AUTO 08006KT 9999 BKN044/// 12/11 Q1019 NOSIG

Time: 03:36 (15:36 UTC)

Forecast

The report was made 4 hours and 31 minutes ago, at 11:05 UTC
Forecast valid from 28 at 12 UTC to 29 at 12 UTC
Wind 12 kt from the Northeast
Visibility 10 km or more
Broken clouds at a height of 4000 ft
Temporary
from 29 at 00 UTC to 29 at 10 UTC
Visibility: 5000 m
rain showers

TAF: NZAA 281105Z 2812/2912 04012KT 9999 BKN040 TEMPO 2900/2910 5000 SHRA

Weather observations and forecasts of more than 4000 airports (METAR and TAF reports).

The available stations are represented by yellow and red dots on the map.

Hover mouse over dot to see the name of the station.

Then click to see weather observations and forecasts.

To change the map : click on the green buttons with a black cross to zoom in, on the green button with a dash to zoom out, or on the green arrows for adjacent maps.


METAR-TAF: